sensor_id;sensor_type;location;lat;lon;timestamp;P1;durP1;ratioP1;P2;durP2;ratioP2
6346;SDS011;3206;42.666;23.600;2023-02-24T00:00:24;0.73;;;0.73;;
6346;SDS011;3206;42.666;23.600;2023-02-24T00:02:58;2.10;;;1.47;;
6346;SDS011;3206;42.666;23.600;2023-02-24T00:05:31;0.47;;;0.47;;
6346;SDS011;3206;42.666;23.600;2023-02-24T00:08:03;2.37;;;0.77;;
6346;SDS011;3206;42.666;23.600;2023-02-24T00:10:29;0.40;;;0.40;;
6346;SDS011;3206;42.666;23.600;2023-02-24T00:12:58;0.50;;;0.50;;
6346;SDS011;3206;42.666;23.600;2023-02-24T00:15:25;0.57;;;0.57;;
6346;SDS011;3206;42.666;23.600;2023-02-24T00:17:52;0.57;;;0.57;;
6346;SDS011;3206;42.666;23.600;2023-02-24T00:20:19;0.40;;;0.40;;
6346;SDS011;3206;42.666;23.600;2023-02-24T00:22:46;0.40;;;0.40;;
6346;SDS011;3206;42.666;23.600;2023-02-24T00:25:12;0.87;;;0.87;;
6346;SDS011;3206;42.666;23.600;2023-02-24T00:27:39;1.07;;;1.03;;
6346;SDS011;3206;42.666;23.600;2023-02-24T00:30:09;0.40;;;0.40;;
6346;SDS011;3206;42.666;23.600;2023-02-24T00:32:36;0.63;;;0.63;;
6346;SDS011;3206;42.666;23.600;2023-02-24T00:35:04;0.30;;;0.30;;
6346;SDS011;3206;42.666;23.600;2023-02-24T00:37:32;1.03;;;0.77;;
6346;SDS011;3206;42.666;23.600;2023-02-24T00:39:59;0.37;;;0.37;;
6346;SDS011;3206;42.666;23.600;2023-02-24T00:42:26;0.83;;;0.80;;
6346;SDS011;3206;42.666;23.600;2023-02-24T00:44:52;0.67;;;0.67;;
6346;SDS011;3206;42.666;23.600;2023-02-24T00:47:20;0.30;;;0.30;;
6346;SDS011;3206;42.666;23.600;2023-02-24T00:49:47;0.43;;;0.43;;
6346;SDS011;3206;42.666;23.600;2023-02-24T00:52:15;0.63;;;0.63;;
6346;SDS011;3206;42.666;23.600;2023-02-24T00:54:43;0.90;;;0.90;;
6346;SDS011;3206;42.666;23.600;2023-02-24T00:57:11;0.30;;;0.30;;
6346;SDS011;3206;42.666;23.600;2023-02-24T00:59:38;1.30;;;0.80;;
6346;SDS011;3206;42.666;23.600;2023-02-24T01:02:05;1.50;;;1.13;;
6346;SDS011;3206;42.666;23.600;2023-02-24T01:04:34;0.47;;;0.47;;
6346;SDS011;3206;42.666;23.600;2023-02-24T01:07:02;0.70;;;0.70;;
6346;SDS011;3206;42.666;23.600;2023-02-24T01:09:34;0.97;;;0.97;;
6346;SDS011;3206;42.666;23.600;2023-02-24T01:12:02;0.80;;;0.80;;
6346;SDS011;3206;42.666;23.600;2023-02-24T01:15:03;0.87;;;0.50;;
6346;SDS011;3206;42.666;23.600;2023-02-24T01:17:34;1.13;;;1.13;;
6346;SDS011;3206;42.666;23.600;2023-02-24T01:20:02;0.70;;;0.70;;
6346;SDS011;3206;42.666;23.600;2023-02-24T01:22:40;0.40;;;0.40;;
6346;SDS011;3206;42.666;23.600;2023-02-24T01:25:07;0.30;;;0.30;;
6346;SDS011;3206;42.666;23.600;2023-02-24T01:27:34;11.50;;;1.17;;
6346;SDS011;3206;42.666;23.600;2023-02-24T01:30:01;0.53;;;0.53;;
6346;SDS011;3206;42.666;23.600;2023-02-24T01:32:29;0.50;;;0.50;;
6346;SDS011;3206;42.666;23.600;2023-02-24T01:34:56;0.83;;;0.83;;
6346;SDS011;3206;42.666;23.600;2023-02-24T01:37:24;0.37;;;0.37;;
6346;SDS011;3206;42.666;23.600;2023-02-24T01:39:53;0.60;;;0.60;;
6346;SDS011;3206;42.666;23.600;2023-02-24T01:42:20;0.57;;;0.57;;
6346;SDS011;3206;42.666;23.600;2023-02-24T01:45:05;0.30;;;0.30;;
6346;SDS011;3206;42.666;23.600;2023-02-24T01:47:43;0.50;;;0.50;;
6346;SDS011;3206;42.666;23.600;2023-02-24T01:50:12;0.60;;;0.60;;
6346;SDS011;3206;42.666;23.600;2023-02-24T01:52:44;0.50;;;0.50;;
6346;SDS011;3206;42.666;23.600;2023-02-24T01:55:13;0.33;;;0.33;;
6346;SDS011;3206;42.666;23.600;2023-02-24T01:57:46;0.40;;;0.40;;
6346;SDS011;3206;42.666;23.600;2023-02-24T02:00:16;0.63;;;0.50;;
6346;SDS011;3206;42.666;23.600;2023-02-24T02:03:03;0.40;;;0.40;;
6346;SDS011;3206;42.666;23.600;2023-02-24T02:05:35;0.40;;;0.40;;
6346;SDS011;3206;42.666;23.600;2023-02-24T02:08:06;1.80;;;0.80;;
6346;SDS011;3206;42.666;23.600;2023-02-24T02:10:34;0.93;;;0.93;;
6346;SDS011;3206;42.666;23.600;2023-02-24T02:13:03;0.73;;;0.50;;
6346;SDS011;3206;42.666;23.600;2023-02-24T02:15:30;1.23;;;0.40;;
6346;SDS011;3206;42.666;23.600;2023-02-24T02:18:04;0.30;;;0.30;;
6346;SDS011;3206;42.666;23.600;2023-02-24T02:20:44;0.20;;;0.20;;
6346;SDS011;3206;42.666;23.600;2023-02-24T02:23:39;0.87;;;0.87;;
6346;SDS011;3206;42.666;23.600;2023-02-24T02:32:43;0.40;;;0.40;;
6346;SDS011;3206;42.666;23.600;2023-02-24T02:35:32;0.27;;;0.27;;
6346;SDS011;3206;42.666;23.600;2023-02-24T02:38:05;1.80;;;1.07;;
6346;SDS011;3206;42.666;23.600;2023-02-24T02:40:40;0.47;;;0.47;;
6346;SDS011;3206;42.666;23.600;2023-02-24T02:43:10;0.30;;;0.30;;
6346;SDS011;3206;42.666;23.600;2023-02-24T02:45:43;0.40;;;0.40;;
6346;SDS011;3206;42.666;23.600;2023-02-24T02:48:14;0.50;;;0.50;;
6346;SDS011;3206;42.666;23.600;2023-02-24T02:50:47;0.50;;;0.50;;
6346;SDS011;3206;42.666;23.600;2023-02-24T02:53:21;0.20;;;0.20;;
6346;SDS011;3206;42.666;23.600;2023-02-24T02:55:53;0.40;;;0.40;;
6346;SDS011;3206;42.666;23.600;2023-02-24T02:58:25;0.40;;;0.40;;
6346;SDS011;3206;42.666;23.600;2023-02-24T03:00:57;0.50;;;0.50;;
6346;SDS011;3206;42.666;23.600;2023-02-24T03:05:58;0.30;;;0.30;;
6346;SDS011;3206;42.666;23.600;2023-02-24T03:08:29;0.60;;;0.60;;
6346;SDS011;3206;42.666;23.600;2023-02-24T03:11:02;0.30;;;0.30;;
6346;SDS011;3206;42.666;23.600;2023-02-24T03:13:33;0.30;;;0.30;;
6346;SDS011;3206;42.666;23.600;2023-02-24T03:16:05;0.33;;;0.33;;
6346;SDS011;3206;42.666;23.600;2023-02-24T03:18:36;0.30;;;0.30;;
6346;SDS011;3206;42.666;23.600;2023-02-24T03:21:11;0.37;;;0.37;;
6346;SDS011;3206;42.666;23.600;2023-02-24T03:23:42;0.47;;;0.47;;
6346;SDS011;3206;42.666;23.600;2023-02-24T03:26:13;0.40;;;0.40;;
6346;SDS011;3206;42.666;23.600;2023-02-24T03:28:47;0.40;;;0.40;;
6346;SDS011;3206;42.666;23.600;2023-02-24T03:31:24;0.20;;;0.20;;
6346;SDS011;3206;42.666;23.600;2023-02-24T03:33:55;0.63;;;0.43;;
6346;SDS011;3206;42.666;23.600;2023-02-24T03:36:29;0.40;;;0.40;;
6346;SDS011;3206;42.666;23.600;2023-02-24T03:38:57;0.50;;;0.50;;
6346;SDS011;3206;42.666;23.600;2023-02-24T03:41:26;0.30;;;0.30;;
6346;SDS011;3206;42.666;23.600;2023-02-24T03:44:02;0.40;;;0.40;;
6346;SDS011;3206;42.666;23.600;2023-02-24T03:46:31;0.53;;;0.53;;
6346;SDS011;3206;42.666;23.600;2023-02-24T03:49:01;0.83;;;0.73;;
6346;SDS011;3206;42.666;23.600;2023-02-24T03:51:38;0.30;;;0.30;;
6346;SDS011;3206;42.666;23.600;2023-02-24T03:54:11;0.63;;;0.63;;
6346;SDS011;3206;42.666;23.600;2023-02-24T03:56:58;0.30;;;0.30;;
6346;SDS011;3206;42.666;23.600;2023-02-24T03:59:39;0.30;;;0.30;;
6346;SDS011;3206;42.666;23.600;2023-02-24T04:02:12;0.30;;;0.30;;
6346;SDS011;3206;42.666;23.600;2023-02-24T04:04:45;0.40;;;0.40;;
6346;SDS011;3206;42.666;23.600;2023-02-24T04:07:19;1.23;;;0.47;;
6346;SDS011;3206;42.666;23.600;2023-02-24T04:10:00;0.43;;;0.43;;
6346;SDS011;3206;42.666;23.600;2023-02-24T04:12:30;0.40;;;0.40;;
6346;SDS011;3206;42.666;23.600;2023-02-24T04:15:08;0.50;;;0.50;;
6346;SDS011;3206;42.666;23.600;2023-02-24T04:17:41;0.30;;;0.30;;
6346;SDS011;3206;42.666;23.600;2023-02-24T04:20:11;0.60;;;0.60;;
6346;SDS011;3206;42.666;23.600;2023-02-24T04:22:42;0.50;;;0.50;;
6346;SDS011;3206;42.666;23.600;2023-02-24T04:25:13;0.40;;;0.40;;
6346;SDS011;3206;42.666;23.600;2023-02-24T04:27:43;0.30;;;0.30;;
6346;SDS011;3206;42.666;23.600;2023-02-24T04:30:11;0.87;;;0.87;;
6346;SDS011;3206;42.666;23.600;2023-02-24T04:32:38;0.30;;;0.30;;
6346;SDS011;3206;42.666;23.600;2023-02-24T04:35:08;0.30;;;0.30;;
6346;SDS011;3206;42.666;23.600;2023-02-24T04:37:38;0.43;;;0.43;;
6346;SDS011;3206;42.666;23.600;2023-02-24T04:40:11;0.30;;;0.30;;
6346;SDS011;3206;42.666;23.600;2023-02-24T04:42:42;0.43;;;0.43;;
6346;SDS011;3206;42.666;23.600;2023-02-24T04:45:13;0.50;;;0.50;;
6346;SDS011;3206;42.666;23.600;2023-02-24T04:47:41;0.30;;;0.30;;
6346;SDS011;3206;42.666;23.600;2023-02-24T04:50:13;0.40;;;0.40;;
6346;SDS011;3206;42.666;23.600;2023-02-24T04:52:47;1.60;;;0.53;;
6346;SDS011;3206;42.666;23.600;2023-02-24T04:55:17;0.37;;;0.37;;
6346;SDS011;3206;42.666;23.600;2023-02-24T04:57:46;0.70;;;0.70;;
6346;SDS011;3206;42.666;23.600;2023-02-24T05:00:13;0.50;;;0.50;;
6346;SDS011;3206;42.666;23.600;2023-02-24T05:02:47;0.30;;;0.30;;
6346;SDS011;3206;42.666;23.600;2023-02-24T05:05:15;0.50;;;0.50;;
6346;SDS011;3206;42.666;23.600;2023-02-24T05:07:42;0.60;;;0.60;;
6346;SDS011;3206;42.666;23.600;2023-02-24T05:10:12;0.30;;;0.30;;
6346;SDS011;3206;42.666;23.600;2023-02-24T05:12:41;0.50;;;0.50;;
6346;SDS011;3206;42.666;23.600;2023-02-24T05:15:09;1.30;;;0.47;;
6346;SDS011;3206;42.666;23.600;2023-02-24T05:17:37;0.70;;;0.70;;
6346;SDS011;3206;42.666;23.600;2023-02-24T05:20:05;0.70;;;0.70;;
6346;SDS011;3206;42.666;23.600;2023-02-24T05:22:50;0.30;;;0.30;;
6346;SDS011;3206;42.666;23.600;2023-02-24T05:25:17;0.30;;;0.30;;
6346;SDS011;3206;42.666;23.600;2023-02-24T05:27:45;0.77;;;0.77;;
6346;SDS011;3206;42.666;23.600;2023-02-24T05:30:12;0.40;;;0.40;;
6346;SDS011;3206;42.666;23.600;2023-02-24T05:32:39;0.57;;;0.57;;
6346;SDS011;3206;42.666;23.600;2023-02-24T05:35:07;0.37;;;0.37;;
6346;SDS011;3206;42.666;23.600;2023-02-24T05:37:36;0.50;;;0.50;;
6346;SDS011;3206;42.666;23.600;2023-02-24T05:40:06;0.30;;;0.30;;
6346;SDS011;3206;42.666;23.600;2023-02-24T05:42:38;1.30;;;1.30;;
6346;SDS011;3206;42.666;23.600;2023-02-24T05:45:08;1.50;;;1.23;;
6346;SDS011;3206;42.666;23.600;2023-02-24T05:47:36;0.30;;;0.30;;
6346;SDS011;3206;42.666;23.600;2023-02-24T05:50:04;1.30;;;0.47;;
6346;SDS011;3206;42.666;23.600;2023-02-24T05:52:33;0.83;;;0.83;;
6346;SDS011;3206;42.666;23.600;2023-02-24T05:55:02;0.30;;;0.30;;
6346;SDS011;3206;42.666;23.600;2023-02-24T05:57:31;0.40;;;0.40;;
6346;SDS011;3206;42.666;23.600;2023-02-24T06:00:00;0.77;;;0.73;;
6346;SDS011;3206;42.666;23.600;2023-02-24T06:02:37;0.77;;;0.77;;
6346;SDS011;3206;42.666;23.600;2023-02-24T06:05:07;0.67;;;0.67;;
6346;SDS011;3206;42.666;23.600;2023-02-24T06:07:49;0.53;;;0.53;;
6346;SDS011;3206;42.666;23.600;2023-02-24T06:10:16;0.87;;;0.87;;
6346;SDS011;3206;42.666;23.600;2023-02-24T06:12:46;1.20;;;1.07;;
6346;SDS011;3206;42.666;23.600;2023-02-24T06:15:13;0.90;;;0.90;;
6346;SDS011;3206;42.666;23.600;2023-02-24T06:17:41;2.37;;;0.87;;
6346;SDS011;3206;42.666;23.600;2023-02-24T06:20:09;0.60;;;0.60;;
6346;SDS011;3206;42.666;23.600;2023-02-24T06:22:39;0.40;;;0.40;;
6346;SDS011;3206;42.666;23.600;2023-02-24T06:25:07;0.77;;;0.77;;
6346;SDS011;3206;42.666;23.600;2023-02-24T06:27:35;0.63;;;0.63;;
6346;SDS011;3206;42.666;23.600;2023-02-24T06:30:03;0.70;;;0.70;;
6346;SDS011;3206;42.666;23.600;2023-02-24T06:32:34;0.30;;;0.30;;
6346;SDS011;3206;42.666;23.600;2023-02-24T06:35:05;0.87;;;0.87;;
6346;SDS011;3206;42.666;23.600;2023-02-24T06:37:32;0.87;;;0.80;;
6346;SDS011;3206;42.666;23.600;2023-02-24T06:39:59;1.23;;;1.17;;
6346;SDS011;3206;42.666;23.600;2023-02-24T06:42:26;0.30;;;0.30;;
6346;SDS011;3206;42.666;23.600;2023-02-24T06:44:53;1.87;;;1.10;;
6346;SDS011;3206;42.666;23.600;2023-02-24T06:47:19;0.93;;;0.50;;
6346;SDS011;3206;42.666;23.600;2023-02-24T06:49:46;1.40;;;1.20;;
6346;SDS011;3206;42.666;23.600;2023-02-24T06:52:15;3.10;;;0.90;;
6346;SDS011;3206;42.666;23.600;2023-02-24T06:54:42;0.77;;;0.77;;
6346;SDS011;3206;42.666;23.600;2023-02-24T06:57:11;2.33;;;1.07;;
6346;SDS011;3206;42.666;23.600;2023-02-24T06:59:38;0.50;;;0.50;;
6346;SDS011;3206;42.666;23.600;2023-02-24T07:02:05;0.40;;;0.40;;
6346;SDS011;3206;42.666;23.600;2023-02-24T07:04:32;0.80;;;0.80;;
6346;SDS011;3206;42.666;23.600;2023-02-24T07:07:07;0.30;;;0.30;;
6346;SDS011;3206;42.666;23.600;2023-02-24T07:09:39;0.60;;;0.60;;
6346;SDS011;3206;42.666;23.600;2023-02-24T07:12:08;0.40;;;0.40;;
6346;SDS011;3206;42.666;23.600;2023-02-24T07:14:36;0.60;;;0.60;;
6346;SDS011;3206;42.666;23.600;2023-02-24T07:17:04;0.67;;;0.67;;
6346;SDS011;3206;42.666;23.600;2023-02-24T07:19:32;0.73;;;0.73;;
6346;SDS011;3206;42.666;23.600;2023-02-24T07:21:59;2.00;;;1.25;;
6346;SDS011;3206;42.666;23.600;2023-02-24T07:24:32;1.63;;;1.53;;
6346;SDS011;3206;42.666;23.600;2023-02-24T07:27:02;0.97;;;0.97;;
6346;SDS011;3206;42.666;23.600;2023-02-24T07:29:31;4.53;;;1.97;;
6346;SDS011;3206;42.666;23.600;2023-02-24T07:31:59;1.43;;;1.33;;
6346;SDS011;3206;42.666;23.600;2023-02-24T07:34:27;1.23;;;0.87;;
6346;SDS011;3206;42.666;23.600;2023-02-24T07:36:55;1.23;;;0.93;;
6346;SDS011;3206;42.666;23.600;2023-02-24T07:39:23;1.43;;;1.20;;
6346;SDS011;3206;42.666;23.600;2023-02-24T07:41:51;3.57;;;2.30;;
6346;SDS011;3206;42.666;23.600;2023-02-24T07:44:21;2.00;;;1.83;;
6346;SDS011;3206;42.666;23.600;2023-02-24T07:46:48;0.93;;;0.93;;
6346;SDS011;3206;42.666;23.600;2023-02-24T07:49:16;0.80;;;0.53;;
6346;SDS011;3206;42.666;23.600;2023-02-24T07:51:46;0.60;;;0.60;;
6346;SDS011;3206;42.666;23.600;2023-02-24T07:54:16;1.17;;;0.80;;
6346;SDS011;3206;42.666;23.600;2023-02-24T07:56:45;1.97;;;1.87;;
6346;SDS011;3206;42.666;23.600;2023-02-24T07:59:21;0.50;;;0.50;;
6346;SDS011;3206;42.666;23.600;2023-02-24T08:01:50;0.30;;;0.30;;
6346;SDS011;3206;42.666;23.600;2023-02-24T08:04:20;1.70;;;1.07;;
6346;SDS011;3206;42.666;23.600;2023-02-24T08:06:49;0.30;;;0.30;;
6346;SDS011;3206;42.666;23.600;2023-02-24T08:09:20;0.37;;;0.37;;
6346;SDS011;3206;42.666;23.600;2023-02-24T08:12:10;0.73;;;0.73;;
6346;SDS011;3206;42.666;23.600;2023-02-24T08:14:43;0.60;;;0.60;;
6346;SDS011;3206;42.666;23.600;2023-02-24T08:17:15;0.60;;;0.60;;
6346;SDS011;3206;42.666;23.600;2023-02-24T08:19:44;1.03;;;1.03;;
6346;SDS011;3206;42.666;23.600;2023-02-24T08:22:12;1.33;;;1.23;;
6346;SDS011;3206;42.666;23.600;2023-02-24T08:24:50;0.57;;;0.57;;
6346;SDS011;3206;42.666;23.600;2023-02-24T08:27:18;1.00;;;1.00;;
6346;SDS011;3206;42.666;23.600;2023-02-24T08:29:47;0.37;;;0.33;;
6346;SDS011;3206;42.666;23.600;2023-02-24T08:32:26;1.57;;;0.73;;
6346;SDS011;3206;42.666;23.600;2023-02-24T08:34:57;0.30;;;0.30;;
6346;SDS011;3206;42.666;23.600;2023-02-24T08:37:28;1.03;;;0.73;;
6346;SDS011;3206;42.666;23.600;2023-02-24T08:40:03;0.30;;;0.30;;
6346;SDS011;3206;42.666;23.600;2023-02-24T08:42:33;2.73;;;0.97;;
6346;SDS011;3206;42.666;23.600;2023-02-24T08:45:03;0.53;;;0.53;;
6346;SDS011;3206;42.666;23.600;2023-02-24T08:47:31;0.80;;;0.80;;
6346;SDS011;3206;42.666;23.600;2023-02-24T08:50:00;2.07;;;1.80;;
6346;SDS011;3206;42.666;23.600;2023-02-24T08:52:31;0.70;;;0.70;;
6346;SDS011;3206;42.666;23.600;2023-02-24T08:54:58;0.93;;;0.87;;
6346;SDS011;3206;42.666;23.600;2023-02-24T08:57:25;0.77;;;0.77;;
6346;SDS011;3206;42.666;23.600;2023-02-24T08:59:52;1.67;;;1.57;;
6346;SDS011;3206;42.666;23.600;2023-02-24T09:02:24;1.13;;;0.77;;
6346;SDS011;3206;42.666;23.600;2023-02-24T09:04:54;2.60;;;1.53;;
6346;SDS011;3206;42.666;23.600;2023-02-24T09:07:23;4.00;;;1.70;;
6346;SDS011;3206;42.666;23.600;2023-02-24T09:09:51;1.33;;;1.23;;
6346;SDS011;3206;42.666;23.600;2023-02-24T09:12:21;5.18;;;1.67;;
6346;SDS011;3206;42.666;23.600;2023-02-24T09:14:50;2.63;;;1.10;;
6346;SDS011;3206;42.666;23.600;2023-02-24T09:17:20;1.60;;;1.50;;
6346;SDS011;3206;42.666;23.600;2023-02-24T09:20:06;2.67;;;1.52;;
6346;SDS011;3206;42.666;23.600;2023-02-24T09:22:48;0.60;;;0.60;;
6346;SDS011;3206;42.666;23.600;2023-02-24T09:25:27;1.43;;;1.33;;
6346;SDS011;3206;42.666;23.600;2023-02-24T09:28:09;3.57;;;2.17;;
6346;SDS011;3206;42.666;23.600;2023-02-24T09:30:41;1.47;;;1.37;;
6346;SDS011;3206;42.666;23.600;2023-02-24T09:33:18;1.30;;;1.20;;
6346;SDS011;3206;42.666;23.600;2023-02-24T09:35:55;1.63;;;1.53;;
6346;SDS011;3206;42.666;23.600;2023-02-24T09:38:33;1.17;;;1.03;;
6346;SDS011;3206;42.666;23.600;2023-02-24T09:41:20;1.07;;;1.07;;
6346;SDS011;3206;42.666;23.600;2023-02-24T09:43:58;1.03;;;1.03;;
6346;SDS011;3206;42.666;23.600;2023-02-24T09:46:29;3.45;;;1.85;;
6346;SDS011;3206;42.666;23.600;2023-02-24T09:48:59;5.10;;;2.40;;
6346;SDS011;3206;42.666;23.600;2023-02-24T09:51:34;3.65;;;1.95;;
6346;SDS011;3206;42.666;23.600;2023-02-24T09:54:09;1.60;;;1.50;;
6346;SDS011;3206;42.666;23.600;2023-02-24T09:56:40;1.20;;;1.20;;
6346;SDS011;3206;42.666;23.600;2023-02-24T09:59:14;3.03;;;2.83;;
6346;SDS011;3206;42.666;23.600;2023-02-24T10:01:52;0.90;;;0.90;;
6346;SDS011;3206;42.666;23.600;2023-02-24T10:07:23;5.78;;;2.38;;
6346;SDS011;3206;42.666;23.600;2023-02-24T10:10:03;1.07;;;1.07;;
6346;SDS011;3206;42.666;23.600;2023-02-24T10:12:45;1.60;;;1.50;;
6346;SDS011;3206;42.666;23.600;2023-02-24T10:15:16;1.60;;;0.70;;
6346;SDS011;3206;42.666;23.600;2023-02-24T10:18:13;0.67;;;0.67;;
6346;SDS011;3206;42.666;23.600;2023-02-24T10:20:52;0.80;;;0.80;;
6346;SDS011;3206;42.666;23.600;2023-02-24T10:23:24;0.80;;;0.80;;
6346;SDS011;3206;42.666;23.600;2023-02-24T10:26:00;1.90;;;1.30;;
6346;SDS011;3206;42.666;23.600;2023-02-24T10:28:35;0.90;;;0.90;;
6346;SDS011;3206;42.666;23.600;2023-02-24T10:31:16;1.52;;;1.42;;
6346;SDS011;3206;42.666;23.600;2023-02-24T10:33:55;2.45;;;2.10;;
6346;SDS011;3206;42.666;23.600;2023-02-24T10:36:25;2.80;;;2.60;;
6346;SDS011;3206;42.666;23.600;2023-02-24T10:39:01;2.83;;;2.03;;
6346;SDS011;3206;42.666;23.600;2023-02-24T10:41:41;1.80;;;1.70;;
6346;SDS011;3206;42.666;23.600;2023-02-24T10:44:11;3.57;;;1.13;;
6346;SDS011;3206;42.666;23.600;2023-02-24T10:46:44;3.03;;;1.60;;
6346;SDS011;3206;42.666;23.600;2023-02-24T10:49:11;0.97;;;0.97;;
6346;SDS011;3206;42.666;23.600;2023-02-24T10:51:41;1.73;;;1.17;;
6346;SDS011;3206;42.666;23.600;2023-02-24T10:54:14;1.37;;;1.07;;
6346;SDS011;3206;42.666;23.600;2023-02-24T10:56:58;1.07;;;0.90;;
6346;SDS011;3206;42.666;23.600;2023-02-24T10:59:47;3.33;;;1.20;;
6346;SDS011;3206;42.666;23.600;2023-02-24T11:02:36;3.50;;;1.47;;
6346;SDS011;3206;42.666;23.600;2023-02-24T11:05:20;1.00;;;1.00;;
6346;SDS011;3206;42.666;23.600;2023-02-24T11:08:06;1.53;;;1.17;;
6346;SDS011;3206;42.666;23.600;2023-02-24T11:10:51;2.00;;;1.40;;
6346;SDS011;3206;42.666;23.600;2023-02-24T11:13:22;0.70;;;0.70;;
6346;SDS011;3206;42.666;23.600;2023-02-24T11:16:07;2.00;;;1.13;;
6346;SDS011;3206;42.666;23.600;2023-02-24T11:18:53;1.05;;;1.05;;
6346;SDS011;3206;42.666;23.600;2023-02-24T11:21:22;2.03;;;1.65;;
6346;SDS011;3206;42.666;23.600;2023-02-24T11:23:52;2.15;;;1.25;;
6346;SDS011;3206;42.666;23.600;2023-02-24T11:26:23;1.48;;;1.35;;
6346;SDS011;3206;42.666;23.600;2023-02-24T11:28:58;1.33;;;1.30;;
6346;SDS011;3206;42.666;23.600;2023-02-24T11:31:44;1.98;;;1.70;;
6346;SDS011;3206;42.666;23.600;2023-02-24T11:34:22;3.20;;;1.48;;
6346;SDS011;3206;42.666;23.600;2023-02-24T11:36:59;2.28;;;1.48;;
6346;SDS011;3206;42.666;23.600;2023-02-24T11:39:38;3.63;;;1.98;;
6346;SDS011;3206;42.666;23.600;2023-02-24T11:42:22;1.55;;;1.45;;
6346;SDS011;3206;42.666;23.600;2023-02-24T11:44:54;2.85;;;2.05;;
6346;SDS011;3206;42.666;23.600;2023-02-24T11:47:28;2.25;;;1.75;;
6346;SDS011;3206;42.666;23.600;2023-02-24T11:50:03;1.50;;;1.40;;
6346;SDS011;3206;42.666;23.600;2023-02-24T11:52:42;3.47;;;2.20;;
6346;SDS011;3206;42.666;23.600;2023-02-24T11:55:14;4.20;;;1.92;;
6346;SDS011;3206;42.666;23.600;2023-02-24T11:57:50;8.75;;;2.60;;
6346;SDS011;3206;42.666;23.600;2023-02-24T12:00:22;0.98;;;0.98;;
6346;SDS011;3206;42.666;23.600;2023-02-24T12:02:52;1.65;;;1.45;;
6346;SDS011;3206;42.666;23.600;2023-02-24T12:05:25;2.92;;;2.15;;
6346;SDS011;3206;42.666;23.600;2023-02-24T12:07:56;1.65;;;1.55;;
6346;SDS011;3206;42.666;23.600;2023-02-24T12:10:29;3.28;;;2.28;;
6346;SDS011;3206;42.666;23.600;2023-02-24T12:13:02;2.15;;;1.73;;
6346;SDS011;3206;42.666;23.600;2023-02-24T12:15:41;0.95;;;0.95;;
6346;SDS011;3206;42.666;23.600;2023-02-24T12:18:13;3.33;;;1.55;;
6346;SDS011;3206;42.666;23.600;2023-02-24T12:20:47;2.95;;;1.40;;
6346;SDS011;3206;42.666;23.600;2023-02-24T12:23:16;3.72;;;1.67;;
6346;SDS011;3206;42.666;23.600;2023-02-24T12:25:51;1.70;;;1.48;;
6346;SDS011;3206;42.666;23.600;2023-02-24T12:28:39;2.05;;;1.52;;
6346;SDS011;3206;42.666;23.600;2023-02-24T12:31:24;2.50;;;1.95;;
6346;SDS011;3206;42.666;23.600;2023-02-24T12:34:42;1.27;;;1.17;;
6346;SDS011;3206;42.666;23.600;2023-02-24T12:37:23;3.20;;;1.48;;
6346;SDS011;3206;42.666;23.600;2023-02-24T12:40:03;2.10;;;2.00;;
6346;SDS011;3206;42.666;23.600;2023-02-24T12:42:39;1.65;;;1.55;;
6346;SDS011;3206;42.666;23.600;2023-02-24T12:45:13;1.25;;;1.15;;
6346;SDS011;3206;42.666;23.600;2023-02-24T12:47:48;2.17;;;1.48;;
6346;SDS011;3206;42.666;23.600;2023-02-24T12:50:30;2.25;;;2.00;;
6346;SDS011;3206;42.666;23.600;2023-02-24T12:53:12;3.15;;;2.03;;
6346;SDS011;3206;42.666;23.600;2023-02-24T12:55:45;5.25;;;1.35;;
6346;SDS011;3206;42.666;23.600;2023-02-24T12:58:24;1.45;;;1.35;;
6346;SDS011;3206;42.666;23.600;2023-02-24T13:00:57;2.92;;;1.92;;
6346;SDS011;3206;42.666;23.600;2023-02-24T13:03:34;2.28;;;2.08;;
6346;SDS011;3206;42.666;23.600;2023-02-24T13:06:15;3.08;;;2.30;;
6346;SDS011;3206;42.666;23.600;2023-02-24T13:08:52;6.07;;;2.35;;
6346;SDS011;3206;42.666;23.600;2023-02-24T13:11:26;1.73;;;1.63;;
6346;SDS011;3206;42.666;23.600;2023-02-24T13:14:03;1.30;;;1.30;;
6346;SDS011;3206;42.666;23.600;2023-02-24T13:16:36;2.10;;;1.83;;
6346;SDS011;3206;42.666;23.600;2023-02-24T13:19:04;2.45;;;2.15;;
6346;SDS011;3206;42.666;23.600;2023-02-24T13:21:34;1.77;;;1.67;;
6346;SDS011;3206;42.666;23.600;2023-02-24T13:24:01;2.80;;;2.17;;
6346;SDS011;3206;42.666;23.600;2023-02-24T13:26:28;8.98;;;2.15;;
6346;SDS011;3206;42.666;23.600;2023-02-24T13:28:58;6.68;;;2.42;;
6346;SDS011;3206;42.666;23.600;2023-02-24T13:31:26;2.78;;;1.65;;
6346;SDS011;3206;42.666;23.600;2023-02-24T13:34:11;1.35;;;1.00;;
6346;SDS011;3206;42.666;23.600;2023-02-24T13:36:46;8.98;;;2.30;;
6346;SDS011;3206;42.666;23.600;2023-02-24T13:39:19;2.08;;;1.98;;
6346;SDS011;3206;42.666;23.600;2023-02-24T13:41:48;6.35;;;3.45;;
6346;SDS011;3206;42.666;23.600;2023-02-24T13:44:25;4.93;;;2.42;;
6346;SDS011;3206;42.666;23.600;2023-02-24T13:46:57;4.35;;;2.30;;
6346;SDS011;3206;42.666;23.600;2023-02-24T13:49:41;4.65;;;2.10;;
6346;SDS011;3206;42.666;23.600;2023-02-24T13:52:21;4.25;;;2.38;;
6346;SDS011;3206;42.666;23.600;2023-02-24T13:57:59;1.73;;;1.17;;
6346;SDS011;3206;42.666;23.600;2023-02-24T14:00:54;2.00;;;1.75;;
6346;SDS011;3206;42.666;23.600;2023-02-24T14:03:30;2.25;;;2.15;;
6346;SDS011;3206;42.666;23.600;2023-02-24T14:05:58;4.63;;;2.38;;
6346;SDS011;3206;42.666;23.600;2023-02-24T14:08:28;3.58;;;1.80;;
6346;SDS011;3206;42.666;23.600;2023-02-24T14:11:03;3.65;;;2.20;;
6346;SDS011;3206;42.666;23.600;2023-02-24T14:13:33;2.25;;;1.50;;
6346;SDS011;3206;42.666;23.600;2023-02-24T14:16:03;1.88;;;1.75;;
6346;SDS011;3206;42.666;23.600;2023-02-24T14:18:34;1.50;;;1.40;;
6346;SDS011;3206;42.666;23.600;2023-02-24T14:21:01;4.82;;;2.72;;
6346;SDS011;3206;42.666;23.600;2023-02-24T14:23:30;3.30;;;3.00;;
6346;SDS011;3206;42.666;23.600;2023-02-24T14:25:58;5.80;;;2.67;;
6346;SDS011;3206;42.666;23.600;2023-02-24T14:28:28;2.17;;;1.95;;
6346;SDS011;3206;42.666;23.600;2023-02-24T14:30:56;1.75;;;1.65;;
6346;SDS011;3206;42.666;23.600;2023-02-24T14:33:27;3.33;;;2.55;;
6346;SDS011;3206;42.666;23.600;2023-02-24T14:35:56;4.70;;;3.42;;
6346;SDS011;3206;42.666;23.600;2023-02-24T14:38:27;8.57;;;2.70;;
6346;SDS011;3206;42.666;23.600;2023-02-24T14:40:57;5.03;;;2.47;;
6346;SDS011;3206;42.666;23.600;2023-02-24T14:43:24;3.47;;;2.20;;
6346;SDS011;3206;42.666;23.600;2023-02-24T14:45:51;2.22;;;1.95;;
6346;SDS011;3206;42.666;23.600;2023-02-24T14:48:22;1.90;;;1.75;;
6346;SDS011;3206;42.666;23.600;2023-02-24T14:50:50;5.10;;;2.38;;
6346;SDS011;3206;42.666;23.600;2023-02-24T14:53:18;4.70;;;2.30;;
6346;SDS011;3206;42.666;23.600;2023-02-24T14:55:50;3.72;;;2.28;;
6346;SDS011;3206;42.666;23.600;2023-02-24T14:58:22;2.72;;;2.40;;
6346;SDS011;3206;42.666;23.600;2023-02-24T15:00:54;9.77;;;3.77;;
6346;SDS011;3206;42.666;23.600;2023-02-24T15:03:25;5.80;;;2.95;;
6346;SDS011;3206;42.666;23.600;2023-02-24T15:05:55;11.57;;;3.95;;
6346;SDS011;3206;42.666;23.600;2023-02-24T15:08:28;2.67;;;2.37;;
6346;SDS011;3206;42.666;23.600;2023-02-24T15:10:58;3.92;;;3.15;;
6346;SDS011;3206;42.666;23.600;2023-02-24T15:13:27;6.87;;;2.63;;
6346;SDS011;3206;42.666;23.600;2023-02-24T15:16:02;2.80;;;2.43;;
6346;SDS011;3206;42.666;23.600;2023-02-24T15:18:36;1.93;;;1.30;;
6346;SDS011;3206;42.666;23.600;2023-02-24T15:21:04;1.30;;;1.30;;
6346;SDS011;3206;42.666;23.600;2023-02-24T15:23:34;6.00;;;2.17;;
6346;SDS011;3206;42.666;23.600;2023-02-24T15:26:03;3.10;;;2.90;;
6346;SDS011;3206;42.666;23.600;2023-02-24T15:28:33;2.27;;;1.83;;
6346;SDS011;3206;42.666;23.600;2023-02-24T15:31:01;3.47;;;2.97;;
6346;SDS011;3206;42.666;23.600;2023-02-24T15:33:32;1.60;;;1.50;;
6346;SDS011;3206;42.666;23.600;2023-02-24T15:36:03;2.40;;;2.17;;
6346;SDS011;3206;42.666;23.600;2023-02-24T15:38:33;2.90;;;1.43;;
6346;SDS011;3206;42.666;23.600;2023-02-24T15:41:04;1.93;;;1.60;;
6346;SDS011;3206;42.666;23.600;2023-02-24T15:43:32;4.53;;;2.17;;
6346;SDS011;3206;42.666;23.600;2023-02-24T15:46:11;3.10;;;2.40;;